Time;durP1;ratioP1;P1;durP2;ratioP2;P2;SDS_P1;SDS_P2;PMS_P1;PMS_P2;Temp;Humidity;BMP_temperature;BMP_pressure;BME280_temperature;BME280_humidity;BME280_pressure;Samples;Min_cycle;Max_cycle;Signal;HPM_P1;HPM_P2
2023/06/17 00:00:07;;;;;;;0.70;0.50;;;25.20;66.40;;;;;;6242239;23;20241;-85
2023/06/17 00:02:37;;;;;;;0.60;0.60;;;25.20;67.10;;;;;;6240518;23;20154;-84
2023/06/17 00:05:07;;;;;;;0.98;0.63;;;25.10;66.80;;;;;;6240761;23;20201;-83
2023/06/17 00:07:35;;;;;;;0.50;0.50;;;25.10;67.20;;;;;;6242123;23;20501;-84
2023/06/17 00:10:04;;;;;;;0.40;0.40;;;25.10;67.10;;;;;;6241366;23;20538;-85
2023/06/17 00:12:33;;;;;;;0.35;0.35;;;25.10;67.00;;;;;;6240246;23;20240;-84
2023/06/17 00:15:02;;;;;;;0.57;0.35;;;25.00;66.90;;;;;;6241894;23;20484;-84
2023/06/17 00:17:31;;;;;;;0.75;0.32;;;25.00;66.90;;;;;;6242081;23;20166;-84
2023/06/17 00:20:07;;;;;;;0.30;0.30;;;25.10;67.50;;;;;;6242760;23;20198;-84
2023/06/17 00:22:36;;;;;;;0.40;0.40;;;25.00;67.40;;;;;;6240671;23;20177;-84
2023/06/17 00:25:05;;;;;;;0.30;0.28;;;25.00;67.50;;;;;;6241983;23;20198;-83
2023/06/17 00:27:34;;;;;;;0.20;0.20;;;25.00;67.40;;;;;;6240714;23;20166;-84
2023/06/17 00:30:03;;;;;;;0.32;0.30;;;25.00;67.50;;;;;;6241949;23;20344;-85
2023/06/17 00:32:32;;;;;;;1.00;0.85;;;25.00;67.90;;;;;;6241908;23;20197;-84
2023/06/17 00:35:02;;;;;;;0.22;0.22;;;25.00;67.90;;;;;;6240122;23;20179;-83
2023/06/17 00:37:31;;;;;;;1.05;0.50;;;25.00;67.90;;;;;;6240599;23;20205;-85
2023/06/17 00:39:59;;;;;;;0.50;0.40;;;25.00;67.90;;;;;;6241179;23;20984;-83
2023/06/17 00:42:27;;;;;;;0.35;0.35;;;25.00;67.80;;;;;;6240589;23;20174;-84
2023/06/17 00:44:56;;;;;;;0.65;0.65;;;25.00;68.00;;;;;;6242049;23;20194;-85
2023/06/17 00:47:25;;;;;;;0.75;0.55;;;24.90;67.90;;;;;;6241032;23;20165;-84
2023/06/17 00:49:54;;;;;;;1.90;1.15;;;24.90;68.00;;;;;;6242557;23;20490;-84
2023/06/17 00:52:25;;;;;;;0.40;0.40;;;24.90;68.60;;;;;;6241360;23;20551;-84
2023/06/17 00:55:10;;;;;;;0.40;0.40;;;24.80;68.90;;;;;;6242152;23;20686;-83
2023/06/17 00:57:39;;;;;;;0.55;0.40;;;24.80;69.00;;;;;;6240743;23;20557;-85
2023/06/17 01:00:10;;;;;;;0.60;0.52;;;24.80;69.20;;;;;;6240020;23;20250;-83
2023/06/17 01:02:43;;;;;;;1.00;0.57;;;24.80;69.50;;;;;;6240038;23;20166;-83
2023/06/17 01:05:14;;;;;;;1.73;0.80;;;24.80;69.70;;;;;;6240937;23;20190;-84
2023/06/17 01:07:52;;;;;;;0.40;0.40;;;24.80;69.90;;;;;;6243298;23;20190;-81
2023/06/17 01:10:28;;;;;;;0.30;0.30;;;24.70;69.50;;;;;;6242655;23;20158;-82
2023/06/17 01:12:58;;;;;;;0.55;0.52;;;24.70;69.70;;;;;;6243179;23;20157;-81
2023/06/17 01:15:27;;;;;;;0.70;0.43;;;24.70;69.70;;;;;;6242021;23;20185;-82
2023/06/17 01:17:56;;;;;;;0.40;0.40;;;24.60;69.80;;;;;;6243058;23;20202;-83
2023/06/17 01:20:26;;;;;;;0.52;0.50;;;24.70;69.70;;;;;;6238474;23;20255;-83
2023/06/17 01:22:57;;;;;;;0.40;0.40;;;24.60;69.40;;;;;;6241889;23;20174;-82
2023/06/17 01:25:31;;;;;;;0.90;0.65;;;24.60;69.40;;;;;;6241849;23;20194;-83
2023/06/17 01:28:01;;;;;;;0.32;0.32;;;24.60;69.20;;;;;;6242227;23;20159;-83
2023/06/17 01:30:30;;;;;;;0.22;0.22;;;24.60;69.40;;;;;;6240597;23;20167;-82
2023/06/17 01:33:00;;;;;;;0.43;0.43;;;24.60;69.40;;;;;;6241910;23;20249;-82
2023/06/17 01:35:32;;;;;;;0.30;0.30;;;24.60;69.20;;;;;;6241299;23;20170;-82
2023/06/17 01:38:06;;;;;;;0.57;0.50;;;24.60;69.10;;;;;;6241677;23;20170;-82
2023/06/17 01:40:39;;;;;;;0.20;0.20;;;24.60;69.20;;;;;;6242269;23;20169;-82
2023/06/17 01:43:09;;;;;;;0.63;0.40;;;24.60;69.10;;;;;;6241973;23;20159;-83
2023/06/17 01:45:38;;;;;;;0.20;0.20;;;24.60;69.20;;;;;;6240982;23;20193;-83
2023/06/17 01:48:06;;;;;;;0.38;0.38;;;24.50;69.40;;;;;;6238208;23;20250;-82
2023/06/17 01:50:35;;;;;;;0.35;0.35;;;24.50;69.70;;;;;;6242125;23;20174;-83
2023/06/17 01:53:03;;;;;;;13.45;0.93;;;24.50;70.80;;;;;;6240946;23;20178;-85
2023/06/17 01:55:31;;;;;;;0.40;0.40;;;24.50;70.30;;;;;;6240785;23;20170;-83
2023/06/17 01:58:01;;;;;;;1.00;0.90;;;24.50;70.30;;;;;;6242297;23;20482;-82
2023/06/17 02:00:30;;;;;;;0.75;0.75;;;24.50;70.60;;;;;;6241366;23;20252;-82
2023/06/17 02:02:58;;;;;;;0.40;0.40;;;24.40;70.80;;;;;;6241449;23;20246;-82
2023/06/17 02:05:27;;;;;;;0.32;0.32;;;24.40;70.50;;;;;;6241720;23;20730;-83
2023/06/17 02:07:59;;;;;;;0.20;0.20;;;24.40;70.60;;;;;;6244631;23;20174;-83
2023/06/17 02:10:27;;;;;;;0.50;0.47;;;24.40;70.70;;;;;;6242611;23;20159;-82
2023/06/17 02:12:56;;;;;;;0.63;0.40;;;24.30;70.50;;;;;;6244780;23;20170;-84
2023/06/17 02:15:26;;;;;;;1.20;0.63;;;24.40;70.50;;;;;;6241991;23;20173;-83
2023/06/17 02:17:55;;;;;;;0.60;0.55;;;24.30;70.50;;;;;;6243026;23;20631;-83
2023/06/17 02:20:23;;;;;;;0.50;0.30;;;24.30;70.80;;;;;;6241864;23;20641;-83
2023/06/17 02:22:52;;;;;;;0.60;0.60;;;24.40;70.70;;;;;;6243411;23;20253;-84
2023/06/17 02:25:20;;;;;;;0.40;0.40;;;24.30;70.50;;;;;;6240810;23;20190;-82
2023/06/17 02:27:48;;;;;;;1.60;0.70;;;24.40;70.50;;;;;;6244125;23;20171;-83
2023/06/17 02:30:17;;;;;;;0.50;0.40;;;24.40;70.50;;;;;;6239887;23;20162;-82
2023/06/17 02:32:47;;;;;;;0.70;0.40;;;24.30;70.50;;;;;;6240175;23;20233;-83
2023/06/17 02:35:16;;;;;;;0.65;0.52;;;24.30;71.30;;;;;;6242120;23;20173;-82
2023/06/17 02:37:44;;;;;;;0.68;0.52;;;24.30;71.10;;;;;;6243047;23;20177;-83
2023/06/17 02:40:13;;;;;;;0.55;0.35;;;24.30;71.00;;;;;;6241336;23;20671;-83
2023/06/17 02:42:41;;;;;;;0.47;0.45;;;24.30;70.90;;;;;;6242459;23;20166;-84
2023/06/17 02:45:11;;;;;;;0.80;0.50;;;24.30;70.90;;;;;;6241108;23;20192;-82
2023/06/17 02:47:40;;;;;;;0.50;0.50;;;24.30;70.90;;;;;;6242294;23;20186;-83
2023/06/17 02:50:11;;;;;;;1.23;0.50;;;24.30;70.80;;;;;;6240931;23;20325;-82
2023/06/17 02:52:39;;;;;;;0.28;0.28;;;24.30;70.80;;;;;;6237454;23;20159;-82
2023/06/17 02:55:09;;;;;;;1.40;0.60;;;24.30;70.70;;;;;;6235050;23;20174;-83
2023/06/17 02:57:37;;;;;;;0.20;0.20;;;24.30;70.70;;;;;;6240758;23;20170;-83
2023/06/17 03:00:08;;;;;;;1.10;0.55;;;24.30;70.70;;;;;;6243297;23;20503;-83
2023/06/17 03:02:36;;;;;;;1.00;0.60;;;24.30;70.70;;;;;;6240469;23;20460;-83
2023/06/17 03:05:07;;;;;;;0.38;0.38;;;24.30;70.80;;;;;;6242519;23;20193;-84
2023/06/17 03:07:40;;;;;;;0.70;0.68;;;24.30;70.80;;;;;;6241530;23;20178;-82
2023/06/17 03:10:10;;;;;;;0.25;0.25;;;24.30;70.80;;;;;;6241842;23;20159;-82
2023/06/17 03:12:38;;;;;;;0.60;0.47;;;24.30;70.80;;;;;;6241488;23;20177;-86
2023/06/17 03:15:08;;;;;;;0.20;0.20;;;24.30;70.80;;;;;;6242041;23;20170;-84
2023/06/17 03:17:37;;;;;;;0.70;0.40;;;24.30;70.80;;;;;;6242151;23;20171;-84
2023/06/17 03:20:08;;;;;;;7.97;0.70;;;24.30;70.80;;;;;;6241225;23;20186;-79
2023/06/17 03:22:38;;;;;;;0.43;0.38;;;24.30;70.80;;;;;;6242470;23;20278;-82
2023/06/17 03:25:08;;;;;;;0.52;0.43;;;24.20;70.70;;;;;;6243886;23;20182;-83
2023/06/17 03:27:37;;;;;;;0.77;0.50;;;24.20;70.70;;;;;;6244035;23;20170;-81
2023/06/17 03:30:06;;;;;;;0.75;0.30;;;24.20;70.70;;;;;;6241671;23;20171;-81
2023/06/17 03:32:36;;;;;;;0.28;0.28;;;24.20;70.70;;;;;;6240604;23;20191;-81
2023/06/17 03:35:06;;;;;;;0.40;0.40;;;24.20;71.00;;;;;;6240729;23;20174;-82
2023/06/17 03:37:34;;;;;;;0.43;0.43;;;24.20;71.00;;;;;;6242175;23;20166;-81
2023/06/17 03:40:05;;;;;;;0.75;0.68;;;24.20;71.00;;;;;;6241210;23;20170;-82
2023/06/17 03:42:33;;;;;;;1.35;0.63;;;24.20;71.10;;;;;;6242575;23;20171;-83
2023/06/17 03:45:02;;;;;;;0.50;0.40;;;24.20;71.00;;;;;;6241520;23;20174;-81
2023/06/17 03:47:30;;;;;;;3.83;0.43;;;24.20;71.20;;;;;;6243599;23;20171;-83
2023/06/17 03:49:59;;;;;;;0.80;0.63;;;24.20;71.30;;;;;;6242119;23;20237;-83
2023/06/17 03:52:27;;;;;;;0.50;0.50;;;24.20;71.30;;;;;;6241619;23;20646;-83
2023/06/17 03:54:56;;;;;;;0.60;0.50;;;24.20;71.20;;;;;;6242217;23;20167;-85
2023/06/17 03:58:03;;;;;;;0.50;0.50;;;24.20;71.40;;;;;;6242035;23;20166;-89
2023/06/17 04:04:52;;;;;;;0.88;0.85;;;24.30;71.40;;;;;;6048373;23;20185;-83
2023/06/17 04:22:10;;;;;;;1.17;0.75;;;24.30;71.90;;;;;;6059371;23;20186;-83
2023/06/17 04:28:36;;;;;;;0.95;0.73;;;24.30;73.30;;;;;;6056186;23;20175;-84
2023/06/17 04:31:35;;;;;;;3.65;0.88;;;24.30;73.80;;;;;;6059031;23;20213;-84
2023/06/17 04:34:17;;;;;;;;;;;;;;;;;;;;;
2023/06/17 04:37:16;;;;;;;12.13;0.65;;;24.20;76.30;;;;;;6186424;23;20179;-82
2023/06/17 04:39:53;;;;;;;2.50;1.38;;;24.10;75.90;;;;;;6287517;22;20202;-82
2023/06/17 04:42:36;;;;;;;0.63;0.63;;;24.10;75.80;;;;;;6301235;22;20599;-82
2023/06/17 04:45:30;;;;;;;;;;;;;;;;;;;;;
2023/06/17 04:48:03;;;;;;;1.42;1.08;;;24.20;75.40;;;;;;6301014;22;20172;-82
2023/06/17 04:50:35;;;;;;;1.20;0.93;;;24.10;75.50;;;;;;6299796;22;20169;-84
2023/06/17 04:56:59;;;;;;;2.22;1.17;;;24.20;75.50;;;;;;6278042;22;20911;-82
2023/06/17 04:59:27;;;;;;;1.00;1.00;;;24.20;76.00;;;;;;6299844;22;20170;-83
2023/06/17 05:01:56;;;;;;;1.48;1.08;;;24.20;76.00;;;;;;6297654;22;20610;-83
2023/06/17 05:04:24;;;;;;;1.38;0.75;;;24.20;75.80;;;;;;6300409;22;20160;-83
2023/06/17 05:06:53;;;;;;;0.82;0.70;;;24.30;75.70;;;;;;6299891;22;20189;-83
2023/06/17 05:09:22;;;;;;;0.60;0.60;;;24.30;75.50;;;;;;6300806;22;20165;-83
2023/06/17 05:11:51;;;;;;;0.90;0.77;;;24.30;75.40;;;;;;6302902;22;20259;-83
2023/06/17 05:14:20;;;;;;;0.45;0.45;;;24.40;75.50;;;;;;6300801;22;20698;-83
2023/06/17 05:16:49;;;;;;;0.40;0.35;;;24.40;75.40;;;;;;6298452;22;20944;-82
2023/06/17 05:19:17;;;;;;;2.63;1.30;;;24.50;75.40;;;;;;6300246;22;20177;-84
2023/06/17 05:21:46;;;;;;;0.68;0.68;;;24.50;75.70;;;;;;6298867;22;20169;-83
2023/06/17 05:24:14;;;;;;;1.42;1.08;;;24.50;75.40;;;;;;6297855;22;20157;-84
2023/06/17 05:26:43;;;;;;;1.17;1.08;;;24.60;75.40;;;;;;6301411;22;20193;-83
2023/06/17 05:29:11;;;;;;;1.83;0.85;;;24.60;75.60;;;;;;6300875;22;20176;-84
2023/06/17 05:31:41;;;;;;;1.35;0.77;;;24.60;75.70;;;;;;6302846;22;20191;-83
2023/06/17 05:34:09;;;;;;;2.28;0.68;;;24.70;75.80;;;;;;6300896;22;20169;-84
2023/06/17 05:36:38;;;;;;;1.10;1.00;;;24.70;76.00;;;;;;6302941;22;20227;-84
2023/06/17 05:39:06;;;;;;;0.95;0.90;;;24.70;76.40;;;;;;6303111;22;20169;-84
2023/06/17 05:41:35;;;;;;;0.82;0.75;;;24.70;76.50;;;;;;6302968;22;20618;-82
2023/06/17 05:44:04;;;;;;;1.13;0.80;;;24.70;76.60;;;;;;6302741;22;20172;-84
2023/06/17 05:46:33;;;;;;;2.63;1.10;;;24.80;76.50;;;;;;6303561;22;20638;-84
2023/06/17 05:49:03;;;;;;;0.65;0.65;;;24.70;76.50;;;;;;6303660;22;20234;-83
2023/06/17 05:51:31;;;;;;;0.85;0.77;;;24.80;76.40;;;;;;6301101;22;20165;-83
2023/06/17 05:54:00;;;;;;;2.63;0.95;;;24.80;76.30;;;;;;6299987;22;20503;-83
2023/06/17 05:56:28;;;;;;;0.80;0.77;;;24.80;76.30;;;;;;6301323;22;20173;-82
2023/06/17 05:58:57;;;;;;;3.53;1.17;;;24.80;76.70;;;;;;6303736;22;20165;-83
2023/06/17 06:01:25;;;;;;;1.08;1.05;;;24.90;76.70;;;;;;6301780;22;20166;-83
2023/06/17 06:03:54;;;;;;;1.30;1.13;;;24.90;76.90;;;;;;6299326;22;20199;-82
2023/06/17 06:06:24;;;;;;;1.83;1.20;;;24.90;76.90;;;;;;6302186;22;20876;-83
2023/06/17 06:08:52;;;;;;;1.48;1.15;;;25.00;76.90;;;;;;6302478;22;20165;-84
2023/06/17 06:11:21;;;;;;;2.33;1.05;;;25.00;76.80;;;;;;6300453;22;20166;-84
2023/06/17 06:13:49;;;;;;;0.85;0.85;;;25.10;76.80;;;;;;6301940;22;20618;-83
2023/06/17 06:16:18;;;;;;;2.55;0.95;;;25.10;76.60;;;;;;6300575;22;20207;-85
2023/06/17 06:18:47;;;;;;;0.70;0.68;;;25.20;76.80;;;;;;6302201;22;20169;-86
2023/06/17 06:21:16;;;;;;;2.85;0.90;;;25.30;76.70;;;;;;6273683;22;20161;-84
2023/06/17 06:23:46;;;;;;;1.98;1.05;;;25.30;76.40;;;;;;6299942;22;20166;-84
2023/06/17 06:26:15;;;;;;;1.48;1.17;;;25.40;76.30;;;;;;6274012;22;20153;-85
2023/06/17 06:28:44;;;;;;;5.47;0.85;;;25.40;76.20;;;;;;6304289;22;20193;-85
2023/06/17 06:31:12;;;;;;;2.97;1.52;;;25.50;76.10;;;;;;6300973;22;20176;-86
2023/06/17 06:33:41;;;;;;;1.55;1.00;;;25.50;75.90;;;;;;6302392;22;20287;-86
2023/06/17 06:36:09;;;;;;;0.70;0.70;;;25.60;75.80;;;;;;6301204;22;20173;-84
2023/06/17 06:38:38;;;;;;;1.33;0.90;;;25.60;75.70;;;;;;6304648;22;20244;-85
2023/06/17 06:41:08;;;;;;;1.27;0.73;;;25.60;75.50;;;;;;6301382;22;20167;-87
2023/06/17 06:43:36;;;;;;;2.47;1.13;;;25.60;75.40;;;;;;6303453;22;20180;-86
2023/06/17 06:46:04;;;;;;;1.27;0.93;;;25.60;75.20;;;;;;6302397;22;20161;-86
2023/06/17 06:48:33;;;;;;;0.82;0.65;;;25.70;75.20;;;;;;6303807;22;20503;-85
2023/06/17 06:51:02;;;;;;;0.98;0.80;;;25.80;75.20;;;;;;6305948;22;20172;-84
2023/06/17 06:53:30;;;;;;;1.65;1.15;;;25.80;75.00;;;;;;6304574;22;20169;-83
2023/06/17 06:55:59;;;;;;;1.38;1.27;;;25.90;74.90;;;;;;6304316;22;20248;-84
2023/06/17 06:58:29;;;;;;;1.17;0.93;;;25.90;74.70;;;;;;6304742;22;20172;-85
2023/06/17 07:00:57;;;;;;;1.00;0.80;;;26.00;74.70;;;;;;6301861;22;20173;-85
2023/06/17 07:03:26;;;;;;;2.72;1.27;;;26.00;74.60;;;;;;6299971;22;20172;-82
2023/06/17 07:05:54;;;;;;;1.02;0.93;;;26.00;74.40;;;;;;6302857;22;20153;-84
2023/06/17 07:08:22;;;;;;;2.17;0.60;;;26.10;74.40;;;;;;6304549;22;20207;-82
2023/06/17 07:10:51;;;;;;;1.40;0.90;;;26.20;74.20;;;;;;6302713;22;20184;-83
2023/06/17 07:13:19;;;;;;;0.55;0.55;;;26.20;74.40;;;;;;6304150;22;20165;-83
2023/06/17 07:15:49;;;;;;;0.73;0.50;;;26.20;74.10;;;;;;6301641;22;20550;-82
2023/06/17 07:18:17;;;;;;;3.67;0.95;;;26.30;74.00;;;;;;6300688;22;20161;-83
2023/06/17 07:20:46;;;;;;;0.82;0.68;;;26.40;74.00;;;;;;6301890;22;20248;-82
2023/06/17 07:23:14;;;;;;;0.82;0.75;;;26.40;73.90;;;;;;6301869;22;20168;-83
2023/06/17 07:25:43;;;;;;;1.40;1.30;;;26.50;73.60;;;;;;6304822;22;20165;-83
2023/06/17 07:28:12;;;;;;;1.05;0.95;;;26.50;73.40;;;;;;6302938;22;20196;-83
2023/06/17 07:30:41;;;;;;;1.80;1.48;;;26.60;73.00;;;;;;6301909;22;21002;-82
2023/06/17 07:33:11;;;;;;;3.13;1.60;;;26.60;72.80;;;;;;6303593;22;20200;-83
2023/06/17 07:35:40;;;;;;;1.30;1.15;;;26.60;72.70;;;;;;6300217;22;20165;-83
2023/06/17 07:38:08;;;;;;;2.17;0.80;;;26.70;72.60;;;;;;6306001;22;20168;-85
2023/06/17 07:40:37;;;;;;;0.95;0.80;;;26.70;72.40;;;;;;6301265;22;20192;-84
2023/06/17 07:43:05;;;;;;;1.60;1.45;;;26.80;72.40;;;;;;6304009;22;20169;-83
2023/06/17 07:45:34;;;;;;;1.85;1.17;;;26.80;72.20;;;;;;6300627;22;20165;-83
2023/06/17 07:48:37;;;;;;;0.77;0.77;;;26.90;72.20;;;;;;6303655;22;20192;-83
2023/06/17 07:51:14;;;;;;;0.88;0.80;;;26.90;72.00;;;;;;6301774;22;20165;-83
2023/06/17 07:53:43;;;;;;;2.15;0.98;;;27.00;71.90;;;;;;6304486;22;20164;-84
2023/06/17 07:56:13;;;;;;;1.40;1.20;;;27.00;71.60;;;;;;6303241;22;20252;-84
2023/06/17 07:58:43;;;;;;;1.80;1.35;;;27.10;71.30;;;;;;6304622;22;20173;-83
2023/06/17 08:01:12;;;;;;;1.10;0.93;;;27.10;71.30;;;;;;6302267;22;20248;-82
2023/06/17 08:03:41;;;;;;;1.83;0.80;;;27.10;70.60;;;;;;6303947;22;20216;-83
2023/06/17 08:06:20;;;;;;;1.05;0.85;;;27.20;70.50;;;;;;6301464;22;20579;-83
2023/06/17 08:09:18;;;;;;;1.00;0.60;;;27.20;70.20;;;;;;6304798;22;20193;-84
2023/06/17 08:12:43;;;;;;;;;;;;;;;;;;;;;
2023/06/17 08:15:23;;;;;;;1.30;0.70;;;27.30;70.00;;;;;;6303911;22;20161;-82
2023/06/17 08:17:52;;;;;;;1.75;0.70;;;27.40;70.00;;;;;;6305293;22;20411;-83
2023/06/17 08:20:22;;;;;;;2.20;1.00;;;27.50;70.00;;;;;;6302066;22;20165;-82
2023/06/17 08:22:53;;;;;;;1.13;0.77;;;27.60;69.80;;;;;;6304162;22;20217;-82
2023/06/17 08:25:21;;;;;;;1.45;0.60;;;27.70;69.40;;;;;;6302860;22;20165;-82
2023/06/17 08:27:50;;;;;;;7.15;1.50;;;27.80;69.20;;;;;;6303273;22;20189;-83
2023/06/17 08:30:19;;;;;;;5.78;2.30;;;27.80;68.80;;;;;;6305003;22;20161;-82
2023/06/17 08:32:47;;;;;;;2.88;1.80;;;27.90;68.70;;;;;;6301273;22;20193;-84
2023/06/17 08:35:16;;;;;;;1.15;0.93;;;27.90;68.70;;;;;;6303993;22;20169;-83
2023/06/17 08:37:45;;;;;;;0.88;0.80;;;27.90;68.30;;;;;;6302103;22;20175;-85
2023/06/17 08:40:16;;;;;;;0.80;0.80;;;28.00;68.20;;;;;;6304571;22;20558;-84
2023/06/17 08:42:44;;;;;;;1.55;0.90;;;28.00;68.00;;;;;;6301359;22;20149;-84
2023/06/17 08:45:14;;;;;;;1.17;1.00;;;28.10;67.90;;;;;;6302553;22;20256;-83
2023/06/17 08:47:43;;;;;;;2.08;1.15;;;28.00;67.60;;;;;;6275628;22;20173;-84
2023/06/17 08:50:14;;;;;;;0.77;0.70;;;28.10;67.40;;;;;;6304334;22;20626;-85
2023/06/17 08:52:42;;;;;;;1.50;1.05;;;28.10;67.50;;;;;;6305358;22;20502;-89
2023/06/17 08:55:11;;;;;;;1.00;0.80;;;28.10;67.60;;;;;;6303848;22;20183;-86
2023/06/17 08:57:42;;;;;;;0.70;0.68;;;28.10;67.40;;;;;;6304484;22;20168;-86
2023/06/17 09:00:11;;;;;;;1.67;0.70;;;28.20;67.20;;;;;;6302711;22;20157;-85
2023/06/17 09:02:45;;;;;;;0.98;0.80;;;28.20;67.20;;;;;;6303614;22;20161;-85
2023/06/17 09:05:13;;;;;;;2.10;1.02;;;28.30;67.20;;;;;;6304645;22;20661;-84
2023/06/17 09:07:43;;;;;;;1.63;1.00;;;28.30;66.40;;;;;;6303513;22;20173;-86
2023/06/17 09:10:15;;;;;;;0.88;0.73;;;28.30;66.50;;;;;;6301434;22;20521;-82
2023/06/17 09:12:45;;;;;;;0.95;0.68;;;28.40;66.60;;;;;;6305173;22;20153;-84
2023/06/17 09:15:17;;;;;;;2.33;1.10;;;28.50;66.60;;;;;;6304230;22;20173;-83
2023/06/17 09:17:47;;;;;;;0.40;0.40;;;28.50;66.30;;;;;;6300595;22;20499;-83
2023/06/17 09:20:17;;;;;;;0.80;0.73;;;28.60;66.00;;;;;;6302855;22;20527;-82
2023/06/17 09:22:48;;;;;;;1.92;1.45;;;28.70;66.10;;;;;;6305460;22;20157;-85
2023/06/17 09:25:18;;;;;;;1.17;0.70;;;28.70;65.30;;;;;;6299100;22;20673;-85
2023/06/17 09:27:52;;;;;;;4.28;0.85;;;28.80;65.50;;;;;;6303234;22;20505;-86
2023/06/17 09:41:56;;;;;;;0.70;0.70;;;29.00;64.10;;;;;;6267478;22;20174;-82
2023/06/17 09:44:26;;;;;;;1.05;0.90;;;29.00;64.00;;;;;;6272076;22;20186;-83
2023/06/17 09:47:06;;;;;;;1.13;1.02;;;29.00;62.70;;;;;;6272843;22;20165;-82
2023/06/17 09:49:36;;;;;;;2.70;0.80;;;29.00;61.50;;;;;;6269675;22;20190;-82
2023/06/17 09:52:08;;;;;;;1.10;0.77;;;29.00;61.30;;;;;;6270667;22;20554;-82
2023/06/17 09:54:37;;;;;;;1.20;1.10;;;29.10;61.10;;;;;;6271370;22;20154;-82
2023/06/17 09:57:09;;;;;;;1.10;0.95;;;29.10;61.90;;;;;;6269252;22;20170;-82
2023/06/17 09:59:39;;;;;;;1.33;0.80;;;29.20;61.00;;;;;;6267814;22;20154;-82
2023/06/17 10:02:09;;;;;;;3.92;2.05;;;29.20;60.50;;;;;;6272124;22;20170;-83
2023/06/17 10:04:37;;;;;;;1.10;1.00;;;29.20;60.50;;;;;;6272412;22;20248;-82
2023/06/17 10:07:07;;;;;;;0.52;0.50;;;29.20;60.50;;;;;;6272397;22;20173;-84
2023/06/17 10:09:36;;;;;;;2.17;0.82;;;29.30;60.60;;;;;;6272773;22;20200;-84
2023/06/17 10:12:07;;;;;;;1.45;1.13;;;29.30;60.70;;;;;;6272913;22;20166;-83
2023/06/17 10:14:37;;;;;;;1.40;1.02;;;29.30;61.10;;;;;;6271247;22;20494;-83
2023/06/17 10:17:09;;;;;;;2.75;1.70;;;29.30;60.30;;;;;;6270011;22;20220;-82
2023/06/17 10:19:41;;;;;;;0.85;0.82;;;29.30;60.40;;;;;;6272989;22;20615;-83
2023/06/17 10:22:13;;;;;;;0.90;0.80;;;29.30;60.90;;;;;;6273192;22;20666;-84
2023/06/17 10:24:41;;;;;;;1.17;0.50;;;29.30;61.10;;;;;;6272033;22;20150;-82
2023/06/17 10:27:10;;;;;;;1.42;0.70;;;29.40;61.20;;;;;;6274022;22;20169;-82
2023/06/17 10:29:43;;;;;;;1.38;0.63;;;29.40;61.10;;;;;;6273675;22;20194;-83
2023/06/17 10:32:20;;;;;;;0.70;0.70;;;29.40;61.00;;;;;;6274314;22;20165;-82
2023/06/17 10:35:11;;;;;;;1.63;0.75;;;29.40;60.40;;;;;;6243904;22;20169;-83
2023/06/17 10:37:44;;;;;;;8.00;1.67;;;29.50;60.20;;;;;;6241952;22;20162;-84
2023/06/17 10:40:24;;;;;;;1.15;0.52;;;29.50;59.60;;;;;;6241422;23;20537;-84
2023/06/17 10:43:17;;;;;;;1.40;0.93;;;29.50;59.70;;;;;;6239801;22;20213;-84
2023/06/17 10:45:50;;;;;;;0.80;0.75;;;29.60;59.70;;;;;;6242783;22;20163;-85
2023/06/17 10:48:25;;;;;;;1.63;1.27;;;29.60;59.60;;;;;;6243282;22;20170;-86
2023/06/17 10:50:57;;;;;;;1.17;1.00;;;29.70;59.40;;;;;;6242596;22;20182;-86
2023/06/17 10:53:28;;;;;;;3.03;1.42;;;29.70;59.30;;;;;;6243848;22;20250;-84
2023/06/17 10:55:57;;;;;;;1.23;0.68;;;29.90;59.30;;;;;;6242754;22;20159;-86
2023/06/17 10:58:36;;;;;;;1.85;0.95;;;30.00;59.30;;;;;;6244226;22;20167;-85
2023/06/17 11:01:06;;;;;;;1.35;0.90;;;30.10;59.30;;;;;;6242163;22;20285;-84
2023/06/17 11:03:37;;;;;;;1.67;1.15;;;30.20;60.00;;;;;;6242860;22;20665;-87
2023/06/17 11:06:06;;;;;;;2.20;1.60;;;30.20;59.20;;;;;;6241312;22;20178;-85
2023/06/17 11:08:36;;;;;;;1.23;1.08;;;30.30;58.40;;;;;;6243439;22;20627;-86
2023/06/17 11:11:12;;;;;;;1.05;0.68;;;30.20;58.20;;;;;;6242868;22;20528;-86
2023/06/17 11:13:42;;;;;;;1.83;1.27;;;30.30;58.30;;;;;;6241812;22;20174;-86
2023/06/17 11:16:11;;;;;;;2.47;0.88;;;30.30;57.80;;;;;;6242176;22;20158;-86
2023/06/17 11:18:42;;;;;;;0.75;0.70;;;30.40;57.60;;;;;;6244496;22;20688;-85
2023/06/17 11:21:11;;;;;;;0.90;0.57;;;30.50;57.80;;;;;;6242987;22;20679;-85
2023/06/17 11:23:43;;;;;;;0.77;0.57;;;30.50;58.00;;;;;;6239977;22;20177;-85
2023/06/17 11:26:12;;;;;;;1.10;0.70;;;30.60;58.10;;;;;;6242648;22;20173;-85
2023/06/17 11:28:41;;;;;;;1.08;0.90;;;30.70;58.10;;;;;;6242521;22;20185;-86
2023/06/17 11:31:09;;;;;;;1.55;1.13;;;30.60;57.70;;;;;;6243990;22;20279;-84
2023/06/17 11:33:41;;;;;;;1.90;1.05;;;30.60;57.20;;;;;;6279838;22;20521;-86
2023/06/17 11:36:13;;;;;;;0.40;0.40;;;30.60;57.20;;;;;;6305357;22;20157;-84
2023/06/17 11:38:44;;;;;;;1.20;0.93;;;30.60;57.40;;;;;;6305932;22;20164;-86
2023/06/17 11:41:12;;;;;;;0.52;0.47;;;30.60;57.60;;;;;;6305754;22;20237;-84
2023/06/17 11:43:41;;;;;;;1.15;0.70;;;30.60;57.70;;;;;;6305070;22;20680;-85
2023/06/17 11:46:09;;;;;;;1.90;0.88;;;30.70;57.70;;;;;;6304210;22;20173;-85
2023/06/17 11:48:37;;;;;;;2.78;1.63;;;30.70;57.20;;;;;;6303596;22;20169;-87
2023/06/17 11:51:07;;;;;;;1.13;1.02;;;30.70;56.70;;;;;;6303920;22;20215;-85
2023/06/17 11:53:37;;;;;;;0.93;0.85;;;30.80;56.30;;;;;;6303736;22;20176;-86
2023/06/17 11:56:07;;;;;;;0.85;0.65;;;30.90;56.20;;;;;;6304036;22;20172;-85
2023/06/17 11:58:37;;;;;;;0.95;0.80;;;30.90;55.80;;;;;;6303387;22;20183;-85
2023/06/17 12:01:06;;;;;;;2.42;1.23;;;31.00;55.70;;;;;;6303847;22;20188;-85
2023/06/17 12:03:34;;;;;;;1.45;0.88;;;31.10;55.70;;;;;;6304181;22;20623;-82
2023/06/17 12:06:04;;;;;;;0.82;0.73;;;31.20;55.90;;;;;;6303767;22;20169;-85
2023/06/17 12:08:34;;;;;;;1.13;0.60;;;31.20;55.80;;;;;;6304443;22;20548;-85
2023/06/17 12:11:07;;;;;;;0.70;0.70;;;31.30;55.90;;;;;;6304458;22;20193;-85
2023/06/17 12:13:39;;;;;;;0.80;0.80;;;31.30;56.10;;;;;;6304308;22;20159;-84
2023/06/17 12:16:11;;;;;;;0.80;0.68;;;31.30;55.90;;;;;;6303120;22;20173;-85
2023/06/17 12:18:48;;;;;;;1.38;0.90;;;31.30;56.70;;;;;;6304199;22;20228;-85
2023/06/17 12:21:16;;;;;;;1.42;1.10;;;31.40;56.10;;;;;;6304601;22;20161;-84
2023/06/17 12:23:46;;;;;;;0.88;0.60;;;31.40;55.90;;;;;;6305058;22;20166;-84
2023/06/17 12:26:15;;;;;;;1.33;1.23;;;31.40;55.60;;;;;;6300963;22;20920;-84
2023/06/17 12:28:43;;;;;;;1.27;1.05;;;31.40;55.70;;;;;;6304761;22;20169;-85
2023/06/17 12:31:12;;;;;;;1.48;0.80;;;31.40;55.70;;;;;;6301450;22;20188;-84
2023/06/17 12:33:40;;;;;;;0.50;0.50;;;31.30;55.90;;;;;;6302854;22;20193;-83
2023/06/17 12:36:09;;;;;;;1.27;0.80;;;31.30;55.80;;;;;;6299910;22;20271;-85
2023/06/17 12:38:39;;;;;;;0.60;0.60;;;31.30;55.80;;;;;;6301492;22;20177;-85
2023/06/17 12:41:10;;;;;;;1.85;1.30;;;31.30;55.60;;;;;;6301988;22;20161;-85
2023/06/17 12:43:40;;;;;;;0.43;0.43;;;31.20;55.60;;;;;;6304285;22;20196;-85
2023/06/17 12:46:09;;;;;;;3.25;1.17;;;31.30;55.90;;;;;;6301920;22;20161;-85
2023/06/17 12:48:37;;;;;;;0.68;0.63;;;31.30;56.10;;;;;;6304169;22;20200;-85
2023/06/17 12:51:06;;;;;;;1.15;1.08;;;31.30;56.30;;;;;;6303940;22;20193;-85
2023/06/17 12:53:35;;;;;;;17.73;0.95;;;31.40;56.30;;;;;;6301242;22;20166;-84
2023/06/17 12:56:03;;;;;;;2.15;1.70;;;31.50;56.10;;;;;;6300436;22;20223;-83
2023/06/17 12:58:33;;;;;;;0.60;0.60;;;31.60;55.60;;;;;;6304231;22;20180;-84
2023/06/17 13:01:01;;;;;;;0.55;0.55;;;31.60;55.50;;;;;;6302402;22;20509;-83
2023/06/17 13:03:30;;;;;;;0.68;0.60;;;31.60;55.50;;;;;;6301705;22;20172;-82
2023/06/17 13:05:58;;;;;;;0.82;0.60;;;31.70;55.50;;;;;;6304655;22;20165;-82
2023/06/17 13:08:27;;;;;;;1.05;0.85;;;31.80;55.50;;;;;;6303519;22;20173;-82
2023/06/17 13:10:55;;;;;;;3.10;1.85;;;31.90;54.90;;;;;;6304970;22;20511;-82
2023/06/17 13:13:24;;;;;;;0.68;0.68;;;32.00;55.10;;;;;;6304198;22;20637;-82
2023/06/17 13:15:55;;;;;;;2.20;0.93;;;32.20;54.80;;;;;;6305319;22;20189;-82
2023/06/17 13:18:23;;;;;;;1.55;1.00;;;32.30;53.90;;;;;;6304475;22;20164;-83
2023/06/17 13:20:52;;;;;;;1.15;0.90;;;32.50;53.50;;;;;;6304739;22;20503;-82
2023/06/17 13:23:20;;;;;;;1.20;1.10;;;32.50;52.90;;;;;;6302686;22;20171;-83
2023/06/17 13:25:49;;;;;;;0.55;0.50;;;32.50;52.00;;;;;;6303878;22;20172;-83
2023/06/17 13:28:19;;;;;;;0.52;0.47;;;32.40;51.90;;;;;;6303811;22;20188;-84
2023/06/17 13:30:49;;;;;;;0.50;0.50;;;32.40;51.70;;;;;;6303496;22;20240;-84
2023/06/17 13:33:20;;;;;;;0.45;0.45;;;32.20;51.60;;;;;;6304483;22;20643;-84
2023/06/17 13:35:48;;;;;;;1.02;0.63;;;32.20;51.90;;;;;;6302666;22;20189;-82
2023/06/17 13:38:18;;;;;;;1.17;0.77;;;32.10;52.00;;;;;;6302900;22;20177;-83
2023/06/17 13:40:46;;;;;;;0.50;0.47;;;32.00;52.10;;;;;;6303159;22;20180;-84
2023/06/17 13:43:16;;;;;;;0.57;0.50;;;31.90;52.10;;;;;;6301886;22;20165;-82
2023/06/17 13:45:45;;;;;;;0.68;0.63;;;31.80;52.10;;;;;;6302801;22;20232;-84